sensor_id;sensor_type;location;lat;lon;timestamp;temperature;humidity
16287;DHT22;8251;53.568;10.018;2023-08-30T00:01:04;19.90;82.00
16287;DHT22;8251;53.568;10.018;2023-08-30T00:03:31;19.80;82.00
16287;DHT22;8251;53.568;10.018;2023-08-30T00:06:02;19.80;82.00
16287;DHT22;8251;53.568;10.018;2023-08-30T00:08:29;19.80;82.10
16287;DHT22;8251;53.568;10.018;2023-08-30T00:10:56;19.80;82.20
16287;DHT22;8251;53.568;10.018;2023-08-30T00:13:24;19.80;82.30
16287;DHT22;8251;53.568;10.018;2023-08-30T00:15:51;19.70;82.20
16287;DHT22;8251;53.568;10.018;2023-08-30T00:18:19;19.80;83.20
16287;DHT22;8251;53.568;10.018;2023-08-30T00:20:46;19.70;82.40
16287;DHT22;8251;53.568;10.018;2023-08-30T00:23:13;19.70;82.40
16287;DHT22;8251;53.568;10.018;2023-08-30T00:25:42;19.70;82.40
16287;DHT22;8251;53.568;10.018;2023-08-30T00:28:09;19.70;82.50
16287;DHT22;8251;53.568;10.018;2023-08-30T00:30:36;19.70;82.50
16287;DHT22;8251;53.568;10.018;2023-08-30T00:33:05;19.70;82.60
16287;DHT22;8251;53.568;10.018;2023-08-30T00:35:34;19.70;82.50
16287;DHT22;8251;53.568;10.018;2023-08-30T00:38:00;19.70;82.50
16287;DHT22;8251;53.568;10.018;2023-08-30T00:40:29;19.60;82.40
16287;DHT22;8251;53.568;10.018;2023-08-30T00:42:56;19.60;82.60
16287;DHT22;8251;53.568;10.018;2023-08-30T00:45:23;19.60;82.70
16287;DHT22;8251;53.568;10.018;2023-08-30T00:47:51;19.50;82.80
16287;DHT22;8251;53.568;10.018;2023-08-30T00:50:18;19.50;82.80
16287;DHT22;8251;53.568;10.018;2023-08-30T00:52:47;19.50;82.80
16287;DHT22;8251;53.568;10.018;2023-08-30T00:55:14;19.50;83.00
16287;DHT22;8251;53.568;10.018;2023-08-30T00:57:41;19.40;83.00
16287;DHT22;8251;53.568;10.018;2023-08-30T01:00:09;19.40;83.30
16287;DHT22;8251;53.568;10.018;2023-08-30T01:02:37;19.40;83.50
16287;DHT22;8251;53.568;10.018;2023-08-30T01:05:05;19.40;83.50
16287;DHT22;8251;53.568;10.018;2023-08-30T01:07:32;19.30;83.40
16287;DHT22;8251;53.568;10.018;2023-08-30T01:10:00;19.30;83.50
16287;DHT22;8251;53.568;10.018;2023-08-30T01:12:31;19.30;83.50
16287;DHT22;8251;53.568;10.018;2023-08-30T01:15:10;19.20;83.50
16287;DHT22;8251;53.568;10.018;2023-08-30T01:17:39;19.20;83.60
16287;DHT22;8251;53.568;10.018;2023-08-30T01:20:08;19.20;83.80
16287;DHT22;8251;53.568;10.018;2023-08-30T01:22:45;19.10;83.90
16287;DHT22;8251;53.568;10.018;2023-08-30T01:25:24;19.10;84.00
16287;DHT22;8251;53.568;10.018;2023-08-30T01:27:56;19.10;84.20
16287;DHT22;8251;53.568;10.018;2023-08-30T01:30:24;19.10;84.20
16287;DHT22;8251;53.568;10.018;2023-08-30T01:32:52;19.00;84.40
16287;DHT22;8251;53.568;10.018;2023-08-30T01:35:21;19.10;84.60
16287;DHT22;8251;53.568;10.018;2023-08-30T01:37:49;19.00;84.70
16287;DHT22;8251;53.568;10.018;2023-08-30T01:40:18;19.00;85.00
16287;DHT22;8251;53.568;10.018;2023-08-30T01:42:46;19.00;85.00
16287;DHT22;8251;53.568;10.018;2023-08-30T01:45:15;19.10;85.00
16287;DHT22;8251;53.568;10.018;2023-08-30T01:47:43;19.10;85.00
16287;DHT22;8251;53.568;10.018;2023-08-30T01:50:12;19.10;84.90
16287;DHT22;8251;53.568;10.018;2023-08-30T01:52:39;19.10;84.80
16287;DHT22;8251;53.568;10.018;2023-08-30T01:55:08;19.10;84.80
16287;DHT22;8251;53.568;10.018;2023-08-30T01:57:36;19.10;84.80
16287;DHT22;8251;53.568;10.018;2023-08-30T02:00:04;19.20;84.90
16287;DHT22;8251;53.568;10.018;2023-08-30T02:02:34;19.10;84.90
16287;DHT22;8251;53.568;10.018;2023-08-30T02:05:01;19.20;84.80
16287;DHT22;8251;53.568;10.018;2023-08-30T02:07:33;19.20;84.70
16287;DHT22;8251;53.568;10.018;2023-08-30T02:10:03;19.10;84.50
16287;DHT22;8251;53.568;10.018;2023-08-30T02:12:37;19.10;84.60
16287;DHT22;8251;53.568;10.018;2023-08-30T02:15:07;19.10;84.60
16287;DHT22;8251;53.568;10.018;2023-08-30T02:17:37;19.00;84.60
16287;DHT22;8251;53.568;10.018;2023-08-30T02:20:05;19.00;84.70
16287;DHT22;8251;53.568;10.018;2023-08-30T02:22:32;19.00;84.90
16287;DHT22;8251;53.568;10.018;2023-08-30T02:25:00;19.00;85.00
16287;DHT22;8251;53.568;10.018;2023-08-30T02:27:30;18.90;85.10
16287;DHT22;8251;53.568;10.018;2023-08-30T02:29:57;18.90;85.20
16287;DHT22;8251;53.568;10.018;2023-08-30T02:32:24;18.90;85.40
16287;DHT22;8251;53.568;10.018;2023-08-30T02:34:53;18.90;85.60
16287;DHT22;8251;53.568;10.018;2023-08-30T02:37:20;18.90;85.70
16287;DHT22;8251;53.568;10.018;2023-08-30T02:39:47;18.80;85.90
16287;DHT22;8251;53.568;10.018;2023-08-30T02:42:14;18.80;86.90
16287;DHT22;8251;53.568;10.018;2023-08-30T02:44:40;18.80;86.30
16287;DHT22;8251;53.568;10.018;2023-08-30T02:47:07;18.90;86.40
16287;DHT22;8251;53.568;10.018;2023-08-30T02:49:34;18.80;86.40
16287;DHT22;8251;53.568;10.018;2023-08-30T02:52:03;18.70;86.60
16287;DHT22;8251;53.568;10.018;2023-08-30T02:54:30;18.80;86.70
16287;DHT22;8251;53.568;10.018;2023-08-30T02:56:56;18.70;86.70
16287;DHT22;8251;53.568;10.018;2023-08-30T02:59:23;18.80;86.90
16287;DHT22;8251;53.568;10.018;2023-08-30T03:01:50;18.80;86.90
16287;DHT22;8251;53.568;10.018;2023-08-30T03:04:17;18.80;86.90
16287;DHT22;8251;53.568;10.018;2023-08-30T03:06:44;18.80;87.00
16287;DHT22;8251;53.568;10.018;2023-08-30T03:09:12;18.80;87.20
16287;DHT22;8251;53.568;10.018;2023-08-30T03:11:39;18.80;87.50
16287;DHT22;8251;53.568;10.018;2023-08-30T03:14:06;18.80;87.60
16287;DHT22;8251;53.568;10.018;2023-08-30T03:16:34;18.80;87.70
16287;DHT22;8251;53.568;10.018;2023-08-30T03:19:01;18.80;87.70
16287;DHT22;8251;53.568;10.018;2023-08-30T03:21:28;18.80;87.70
16287;DHT22;8251;53.568;10.018;2023-08-30T03:23:55;18.80;87.80
16287;DHT22;8251;53.568;10.018;2023-08-30T03:26:23;18.80;87.70
16287;DHT22;8251;53.568;10.018;2023-08-30T03:28:50;18.80;87.70
16287;DHT22;8251;53.568;10.018;2023-08-30T03:31:17;18.80;87.70
16287;DHT22;8251;53.568;10.018;2023-08-30T03:33:45;18.80;87.80
16287;DHT22;8251;53.568;10.018;2023-08-30T03:36:14;18.90;87.70
16287;DHT22;8251;53.568;10.018;2023-08-30T03:38:42;18.80;87.50
16287;DHT22;8251;53.568;10.018;2023-08-30T03:41:09;18.80;87.50
16287;DHT22;8251;53.568;10.018;2023-08-30T03:43:38;18.80;87.50
16287;DHT22;8251;53.568;10.018;2023-08-30T03:46:05;18.80;87.50
16287;DHT22;8251;53.568;10.018;2023-08-30T03:48:32;18.80;87.60
16287;DHT22;8251;53.568;10.018;2023-08-30T03:50:59;18.90;87.70
16287;DHT22;8251;53.568;10.018;2023-08-30T03:53:26;18.90;87.60
16287;DHT22;8251;53.568;10.018;2023-08-30T03:55:53;18.90;87.50
16287;DHT22;8251;53.568;10.018;2023-08-30T03:58:20;18.90;87.50
16287;DHT22;8251;53.568;10.018;2023-08-30T04:00:48;18.90;87.50
16287;DHT22;8251;53.568;10.018;2023-08-30T04:03:15;18.80;87.30
16287;DHT22;8251;53.568;10.018;2023-08-30T04:05:42;18.90;87.40
16287;DHT22;8251;53.568;10.018;2023-08-30T04:08:09;18.90;87.50
16287;DHT22;8251;53.568;10.018;2023-08-30T04:10:37;18.80;87.30
16287;DHT22;8251;53.568;10.018;2023-08-30T04:13:05;18.90;87.40
16287;DHT22;8251;53.568;10.018;2023-08-30T04:15:33;18.90;87.50
16287;DHT22;8251;53.568;10.018;2023-08-30T04:18:02;18.90;87.30
16287;DHT22;8251;53.568;10.018;2023-08-30T04:20:30;18.90;87.10
16287;DHT22;8251;53.568;10.018;2023-08-30T04:22:57;18.90;87.00
16287;DHT22;8251;53.568;10.018;2023-08-30T04:25:27;18.90;86.90
16287;DHT22;8251;53.568;10.018;2023-08-30T04:27:53;18.90;86.80
16287;DHT22;8251;53.568;10.018;2023-08-30T04:30:21;18.90;86.80
16287;DHT22;8251;53.568;10.018;2023-08-30T04:32:47;19.00;86.90
16287;DHT22;8251;53.568;10.018;2023-08-30T04:35:16;19.00;86.90
16287;DHT22;8251;53.568;10.018;2023-08-30T04:37:42;19.00;86.70
16287;DHT22;8251;53.568;10.018;2023-08-30T04:40:10;19.00;86.50
16287;DHT22;8251;53.568;10.018;2023-08-30T04:42:37;19.00;86.40
16287;DHT22;8251;53.568;10.018;2023-08-30T04:45:06;19.00;86.00
16287;DHT22;8251;53.568;10.018;2023-08-30T04:47:33;19.00;85.80
16287;DHT22;8251;53.568;10.018;2023-08-30T04:50:03;19.00;85.60
16287;DHT22;8251;53.568;10.018;2023-08-30T04:52:31;19.00;85.60
16287;DHT22;8251;53.568;10.018;2023-08-30T04:54:58;18.90;85.60
16287;DHT22;8251;53.568;10.018;2023-08-30T04:57:25;19.00;85.80
16287;DHT22;8251;53.568;10.018;2023-08-30T04:59:52;19.00;85.60
16287;DHT22;8251;53.568;10.018;2023-08-30T05:02:19;19.00;85.50
16287;DHT22;8251;53.568;10.018;2023-08-30T05:04:46;19.00;85.40
16287;DHT22;8251;53.568;10.018;2023-08-30T05:07:13;19.00;85.30
16287;DHT22;8251;53.568;10.018;2023-08-30T05:09:41;19.00;85.10
16287;DHT22;8251;53.568;10.018;2023-08-30T05:12:08;19.00;85.00
16287;DHT22;8251;53.568;10.018;2023-08-30T05:14:35;19.00;85.20
16287;DHT22;8251;53.568;10.018;2023-08-30T05:17:02;19.00;85.10
16287;DHT22;8251;53.568;10.018;2023-08-30T05:19:29;19.00;85.00
16287;DHT22;8251;53.568;10.018;2023-08-30T05:21:56;19.00;84.80
16287;DHT22;8251;53.568;10.018;2023-08-30T05:24:23;19.00;84.80
16287;DHT22;8251;53.568;10.018;2023-08-30T05:26:53;19.00;84.70
16287;DHT22;8251;53.568;10.018;2023-08-30T05:29:20;19.00;84.80
16287;DHT22;8251;53.568;10.018;2023-08-30T05:31:46;19.00;84.80
16287;DHT22;8251;53.568;10.018;2023-08-30T05:34:13;19.00;85.00
16287;DHT22;8251;53.568;10.018;2023-08-30T05:36:40;19.10;84.70
16287;DHT22;8251;53.568;10.018;2023-08-30T05:39:07;19.10;84.60
16287;DHT22;8251;53.568;10.018;2023-08-30T05:41:34;19.00;84.40
16287;DHT22;8251;53.568;10.018;2023-08-30T05:44:03;19.00;84.40
16287;DHT22;8251;53.568;10.018;2023-08-30T05:46:30;19.10;84.40
16287;DHT22;8251;53.568;10.018;2023-08-30T05:48:56;19.00;84.20
16287;DHT22;8251;53.568;10.018;2023-08-30T05:51:23;19.10;84.30
16287;DHT22;8251;53.568;10.018;2023-08-30T05:53:50;18.90;84.10
16287;DHT22;8251;53.568;10.018;2023-08-30T05:56:17;18.90;84.30
16287;DHT22;8251;53.568;10.018;2023-08-30T05:58:44;19.00;84.40
16287;DHT22;8251;53.568;10.018;2023-08-30T06:01:13;19.00;84.20
16287;DHT22;8251;53.568;10.018;2023-08-30T06:03:40;19.00;84.40
16287;DHT22;8251;53.568;10.018;2023-08-30T06:06:07;19.00;84.00
16287;DHT22;8251;53.568;10.018;2023-08-30T06:08:34;19.10;84.20
16287;DHT22;8251;53.568;10.018;2023-08-30T06:11:01;19.10;84.00
16287;DHT22;8251;53.568;10.018;2023-08-30T06:13:28;19.30;84.00
16287;DHT22;8251;53.568;10.018;2023-08-30T06:15:55;19.40;83.80
16287;DHT22;8251;53.568;10.018;2023-08-30T06:18:29;19.50;83.50
16287;DHT22;8251;53.568;10.018;2023-08-30T06:21:02;19.50;83.00
16287;DHT22;8251;53.568;10.018;2023-08-30T06:23:33;19.60;82.60
16287;DHT22;8251;53.568;10.018;2023-08-30T06:26:00;19.60;81.80
16287;DHT22;8251;53.568;10.018;2023-08-30T06:28:28;19.70;81.80
16287;DHT22;8251;53.568;10.018;2023-08-30T06:30:55;19.80;81.80
16287;DHT22;8251;53.568;10.018;2023-08-30T06:33:24;19.80;81.40
16287;DHT22;8251;53.568;10.018;2023-08-30T06:35:51;19.90;81.20
16287;DHT22;8251;53.568;10.018;2023-08-30T06:38:18;19.90;81.20
16287;DHT22;8251;53.568;10.018;2023-08-30T06:40:46;20.00;81.10
16287;DHT22;8251;53.568;10.018;2023-08-30T06:43:13;20.00;80.70
16287;DHT22;8251;53.568;10.018;2023-08-30T06:45:40;20.10;80.50
16287;DHT22;8251;53.568;10.018;2023-08-30T06:48:07;20.20;80.30
16287;DHT22;8251;53.568;10.018;2023-08-30T06:50:36;20.30;80.10
16287;DHT22;8251;53.568;10.018;2023-08-30T06:53:03;20.30;79.70
16287;DHT22;8251;53.568;10.018;2023-08-30T06:55:30;20.30;79.60
16287;DHT22;8251;53.568;10.018;2023-08-30T06:57:57;20.30;79.60
16287;DHT22;8251;53.568;10.018;2023-08-30T07:00:31;20.40;79.60
16287;DHT22;8251;53.568;10.018;2023-08-30T07:03:01;20.50;79.30
16287;DHT22;8251;53.568;10.018;2023-08-30T07:05:28;20.50;79.10
16287;DHT22;8251;53.568;10.018;2023-08-30T07:07:56;20.70;79.00
16287;DHT22;8251;53.568;10.018;2023-08-30T07:10:23;20.70;78.50
16287;DHT22;8251;53.568;10.018;2023-08-30T07:12:50;20.80;77.90
16287;DHT22;8251;53.568;10.018;2023-08-30T07:15:17;20.90;78.30
16287;DHT22;8251;53.568;10.018;2023-08-30T07:17:44;20.90;77.80
16287;DHT22;8251;53.568;10.018;2023-08-30T07:20:11;21.00;77.50
16287;DHT22;8251;53.568;10.018;2023-08-30T07:22:38;21.20;77.10
16287;DHT22;8251;53.568;10.018;2023-08-30T07:25:08;21.30;76.60
16287;DHT22;8251;53.568;10.018;2023-08-30T07:27:36;21.40;76.40
16287;DHT22;8251;53.568;10.018;2023-08-30T07:30:03;21.40;76.40
16287;DHT22;8251;53.568;10.018;2023-08-30T07:32:30;21.50;76.20
16287;DHT22;8251;53.568;10.018;2023-08-30T07:34:57;21.70;76.10
16287;DHT22;8251;53.568;10.018;2023-08-30T07:37:27;21.90;75.70
16287;DHT22;8251;53.568;10.018;2023-08-30T07:39:55;22.20;75.10
16287;DHT22;8251;53.568;10.018;2023-08-30T07:42:23;22.40;74.20
16287;DHT22;8251;53.568;10.018;2023-08-30T07:44:50;22.90;72.90
16287;DHT22;8251;53.568;10.018;2023-08-30T07:47:17;23.50;71.00
16287;DHT22;8251;53.568;10.018;2023-08-30T07:49:44;24.10;69.50
16287;DHT22;8251;53.568;10.018;2023-08-30T07:52:11;24.80;66.80
16287;DHT22;8251;53.568;10.018;2023-08-30T07:54:39;25.40;65.00
16287;DHT22;8251;53.568;10.018;2023-08-30T07:57:06;25.80;63.70
16287;DHT22;8251;53.568;10.018;2023-08-30T07:59:35;26.00;62.70
16287;DHT22;8251;53.568;10.018;2023-08-30T08:02:03;26.10;60.80
16287;DHT22;8251;53.568;10.018;2023-08-30T08:04:31;26.10;60.70
16287;DHT22;8251;53.568;10.018;2023-08-30T08:06:58;26.00;61.30
16287;DHT22;8251;53.568;10.018;2023-08-30T08:09:25;25.80;61.40
16287;DHT22;8251;53.568;10.018;2023-08-30T08:11:53;25.70;62.10
16287;DHT22;8251;53.568;10.018;2023-08-30T08:14:22;25.60;62.40
16287;DHT22;8251;53.568;10.018;2023-08-30T08:16:57;25.60;62.40
16287;DHT22;8251;53.568;10.018;2023-08-30T08:19:27;25.70;62.10
16287;DHT22;8251;53.568;10.018;2023-08-30T08:21:59;25.60;62.00
16287;DHT22;8251;53.568;10.018;2023-08-30T08:24:29;25.70;62.10
16287;DHT22;8251;53.568;10.018;2023-08-30T08:26:56;25.70;62.10
16287;DHT22;8251;53.568;10.018;2023-08-30T08:29:23;25.70;62.10
16287;DHT22;8251;53.568;10.018;2023-08-30T08:31:52;25.80;61.80
16287;DHT22;8251;53.568;10.018;2023-08-30T08:34:19;25.80;61.40
16287;DHT22;8251;53.568;10.018;2023-08-30T08:36:47;25.90;61.30
16287;DHT22;8251;53.568;10.018;2023-08-30T08:39:13;26.00;60.80
16287;DHT22;8251;53.568;10.018;2023-08-30T08:41:41;26.10;60.70
16287;DHT22;8251;53.568;10.018;2023-08-30T08:44:09;26.20;60.60
16287;DHT22;8251;53.568;10.018;2023-08-30T08:46:36;26.10;60.10
16287;DHT22;8251;53.568;10.018;2023-08-30T08:49:09;26.10;60.70
16287;DHT22;8251;53.568;10.018;2023-08-30T08:51:37;26.00;60.80
16287;DHT22;8251;53.568;10.018;2023-08-30T08:54:04;25.70;60.90
16287;DHT22;8251;53.568;10.018;2023-08-30T08:56:32;25.50;60.90
16287;DHT22;8251;53.568;10.018;2023-08-30T08:58:59;25.30;61.70
16287;DHT22;8251;53.568;10.018;2023-08-30T09:01:26;25.20;62.30
16287;DHT22;8251;53.568;10.018;2023-08-30T09:03:57;25.00;62.50
16287;DHT22;8251;53.568;10.018;2023-08-30T09:06:31;24.90;62.50
16287;DHT22;8251;53.568;10.018;2023-08-30T09:09:17;24.80;61.00
16287;DHT22;8251;53.568;10.018;2023-08-30T09:12:03;24.80;62.10
16287;DHT22;8251;53.568;10.018;2023-08-30T09:14:36;24.70;62.20
16287;DHT22;8251;53.568;10.018;2023-08-30T09:17:03;24.60;62.30
16287;DHT22;8251;53.568;10.018;2023-08-30T09:19:30;24.50;61.90
16287;DHT22;8251;53.568;10.018;2023-08-30T09:21:59;24.50;62.00
16287;DHT22;8251;53.568;10.018;2023-08-30T09:24:36;24.40;61.60
16287;DHT22;8251;53.568;10.018;2023-08-30T09:27:04;24.30;62.20
16287;DHT22;8251;53.568;10.018;2023-08-30T09:29:30;24.40;62.00
16287;DHT22;8251;53.568;10.018;2023-08-30T09:31:58;24.40;61.90
16287;DHT22;8251;53.568;10.018;2023-08-30T09:34:27;24.40;61.20
16287;DHT22;8251;53.568;10.018;2023-08-30T09:36:54;24.40;61.40
16287;DHT22;8251;53.568;10.018;2023-08-30T09:39:22;24.40;61.20
16287;DHT22;8251;53.568;10.018;2023-08-30T09:41:50;24.40;60.80
16287;DHT22;8251;53.568;10.018;2023-08-30T09:44:18;24.40;60.60
16287;DHT22;8251;53.568;10.018;2023-08-30T09:46:49;24.30;60.50
16287;DHT22;8251;53.568;10.018;2023-08-30T09:49:18;24.30;60.40
16287;DHT22;8251;53.568;10.018;2023-08-30T09:51:47;24.20;60.20
16287;DHT22;8251;53.568;10.018;2023-08-30T09:54:15;24.10;60.50
16287;DHT22;8251;53.568;10.018;2023-08-30T09:56:44;24.00;60.70
16287;DHT22;8251;53.568;10.018;2023-08-30T09:59:13;23.90;61.10
16287;DHT22;8251;53.568;10.018;2023-08-30T10:01:42;23.80;62.30
16287;DHT22;8251;53.568;10.018;2023-08-30T10:04:09;23.80;62.90
16287;DHT22;8251;53.568;10.018;2023-08-30T10:06:37;23.80;62.60
16287;DHT22;8251;53.568;10.018;2023-08-30T10:09:05;23.70;61.60
16287;DHT22;8251;53.568;10.018;2023-08-30T10:11:34;23.70;60.90
16287;DHT22;8251;53.568;10.018;2023-08-30T10:14:03;23.60;59.90
16287;DHT22;8251;53.568;10.018;2023-08-30T10:16:40;23.60;60.30
16287;DHT22;8251;53.568;10.018;2023-08-30T10:19:10;23.60;59.70
16287;DHT22;8251;53.568;10.018;2023-08-30T10:21:38;23.60;59.60
16287;DHT22;8251;53.568;10.018;2023-08-30T10:24:07;23.60;60.40
16287;DHT22;8251;53.568;10.018;2023-08-30T10:26:37;23.60;60.20
16287;DHT22;8251;53.568;10.018;2023-08-30T10:29:08;23.60;59.10
16287;DHT22;8251;53.568;10.018;2023-08-30T10:31:37;23.60;59.00
16287;DHT22;8251;53.568;10.018;2023-08-30T10:34:13;23.60;59.70
16287;DHT22;8251;53.568;10.018;2023-08-30T10:36:41;23.50;59.20
16287;DHT22;8251;53.568;10.018;2023-08-30T10:39:12;23.50;59.10
16287;DHT22;8251;53.568;10.018;2023-08-30T10:41:54;23.50;59.10
16287;DHT22;8251;53.568;10.018;2023-08-30T10:44:23;23.60;60.00
16287;DHT22;8251;53.568;10.018;2023-08-30T10:46:52;23.70;59.90
16287;DHT22;8251;53.568;10.018;2023-08-30T10:49:19;23.90;59.20
16287;DHT22;8251;53.568;10.018;2023-08-30T10:51:54;24.20;58.20
16287;DHT22;8251;53.568;10.018;2023-08-30T10:54:22;24.50;58.00
16287;DHT22;8251;53.568;10.018;2023-08-30T10:56:58;24.70;58.50
16287;DHT22;8251;53.568;10.018;2023-08-30T10:59:28;24.90;58.20
16287;DHT22;8251;53.568;10.018;2023-08-30T11:02:01;25.10;57.90
16287;DHT22;8251;53.568;10.018;2023-08-30T11:04:29;25.40;57.20
16287;DHT22;8251;53.568;10.018;2023-08-30T11:06:56;25.60;56.60
16287;DHT22;8251;53.568;10.018;2023-08-30T11:09:24;25.60;56.20
16287;DHT22;8251;53.568;10.018;2023-08-30T11:11:52;25.70;56.30
16287;DHT22;8251;53.568;10.018;2023-08-30T11:14:20;25.80;56.30
16287;DHT22;8251;53.568;10.018;2023-08-30T11:16:49;25.80;56.20
16287;DHT22;8251;53.568;10.018;2023-08-30T11:19:15;25.80;56.00
16287;DHT22;8251;53.568;10.018;2023-08-30T11:21:44;25.80;55.90
16287;DHT22;8251;53.568;10.018;2023-08-30T11:24:11;25.70;56.10
16287;DHT22;8251;53.568;10.018;2023-08-30T11:26:39;25.70;56.30
16287;DHT22;8251;53.568;10.018;2023-08-30T11:29:06;25.80;56.90
16287;DHT22;8251;53.568;10.018;2023-08-30T11:31:33;25.90;56.00
16287;DHT22;8251;53.568;10.018;2023-08-30T11:34:02;25.90;54.40
16287;DHT22;8251;53.568;10.018;2023-08-30T11:36:32;25.80;53.40
16287;DHT22;8251;53.568;10.018;2023-08-30T11:39:12;25.80;53.70
16287;DHT22;8251;53.568;10.018;2023-08-30T11:41:43;25.70;52.40
16287;DHT22;8251;53.568;10.018;2023-08-30T11:44:10;25.50;53.50
16287;DHT22;8251;53.568;10.018;2023-08-30T11:46:37;25.60;54.40
16287;DHT22;8251;53.568;10.018;2023-08-30T11:49:06;25.80;54.70
16287;DHT22;8251;53.568;10.018;2023-08-30T11:51:33;25.90;54.50
16287;DHT22;8251;53.568;10.018;2023-08-30T11:54:00;26.00;54.30
16287;DHT22;8251;53.568;10.018;2023-08-30T11:56:29;26.00;54.40
16287;DHT22;8251;53.568;10.018;2023-08-30T11:58:56;26.00;54.40
16287;DHT22;8251;53.568;10.018;2023-08-30T12:01:23;26.10;54.30
16287;DHT22;8251;53.568;10.018;2023-08-30T12:03:50;26.20;53.20
16287;DHT22;8251;53.568;10.018;2023-08-30T12:06:18;26.20;52.50
16287;DHT22;8251;53.568;10.018;2023-08-30T12:08:45;26.10;52.60
16287;DHT22;8251;53.568;10.018;2023-08-30T12:11:18;26.00;52.80
16287;DHT22;8251;53.568;10.018;2023-08-30T12:13:46;26.10;53.60
16287;DHT22;8251;53.568;10.018;2023-08-30T12:16:16;26.20;53.70
16287;DHT22;8251;53.568;10.018;2023-08-30T12:18:43;26.40;53.00
16287;DHT22;8251;53.568;10.018;2023-08-30T12:21:10;26.60;52.20
16287;DHT22;8251;53.568;10.018;2023-08-30T12:23:41;26.70;53.30
16287;DHT22;8251;53.568;10.018;2023-08-30T12:26:09;26.70;53.40
16287;DHT22;8251;53.568;10.018;2023-08-30T12:28:37;26.60;51.30
16287;DHT22;8251;53.568;10.018;2023-08-30T12:31:04;26.80;52.10
16287;DHT22;8251;53.568;10.018;2023-08-30T12:33:33;26.80;52.10
16287;DHT22;8251;53.568;10.018;2023-08-30T12:36:04;26.90;51.50
16287;DHT22;8251;53.568;10.018;2023-08-30T12:38:32;27.00;50.40
16287;DHT22;8251;53.568;10.018;2023-08-30T12:41:00;27.10;50.30
16287;DHT22;8251;53.568;10.018;2023-08-30T12:43:28;27.20;50.60
16287;DHT22;8251;53.568;10.018;2023-08-30T12:45:54;27.20;49.90
16287;DHT22;8251;53.568;10.018;2023-08-30T12:48:21;27.20;50.60
16287;DHT22;8251;53.568;10.018;2023-08-30T12:50:48;27.20;49.90
16287;DHT22;8251;53.568;10.018;2023-08-30T12:53:15;27.30;49.40
16287;DHT22;8251;53.568;10.018;2023-08-30T12:55:43;27.40;50.10
16287;DHT22;8251;53.568;10.018;2023-08-30T12:58:11;27.50;51.10
16287;DHT22;8251;53.568;10.018;2023-08-30T13:00:39;27.60;51.20
16287;DHT22;8251;53.568;10.018;2023-08-30T13:03:06;27.60;51.10
16287;DHT22;8251;53.568;10.018;2023-08-30T13:05:33;27.50;50.70
16287;DHT22;8251;53.568;10.018;2023-08-30T13:08:02;27.30;49.40
16287;DHT22;8251;53.568;10.018;2023-08-30T13:10:29;27.20;49.40
16287;DHT22;8251;53.568;10.018;2023-08-30T13:12:58;27.00;48.90
16287;DHT22;8251;53.568;10.018;2023-08-30T13:15:33;26.90;49.30
16287;DHT22;8251;53.568;10.018;2023-08-30T13:18:03;26.70;49.90
16287;DHT22;8251;53.568;10.018;2023-08-30T13:20:29;26.50;49.60
16287;DHT22;8251;53.568;10.018;2023-08-30T13:22:56;26.40;50.30
16287;DHT22;8251;53.568;10.018;2023-08-30T13:25:23;26.30;50.80
16287;DHT22;8251;53.568;10.018;2023-08-30T13:27:50;26.20;51.10
16287;DHT22;8251;53.568;10.018;2023-08-30T13:30:18;26.20;52.20
16287;DHT22;8251;53.568;10.018;2023-08-30T13:32:47;26.10;52.50
16287;DHT22;8251;53.568;10.018;2023-08-30T13:35:13;26.10;53.10
16287;DHT22;8251;53.568;10.018;2023-08-30T13:37:44;26.00;53.20
16287;DHT22;8251;53.568;10.018;2023-08-30T13:40:17;26.00;53.10
16287;DHT22;8251;53.568;10.018;2023-08-30T13:42:48;25.90;53.40
16287;DHT22;8251;53.568;10.018;2023-08-30T13:45:15;25.80;52.30
16287;DHT22;8251;53.568;10.018;2023-08-30T13:47:43;25.80;52.40
16287;DHT22;8251;53.568;10.018;2023-08-30T13:50:12;25.80;52.30
16287;DHT22;8251;53.568;10.018;2023-08-30T13:52:39;25.70;50.40
16287;DHT22;8251;53.568;10.018;2023-08-30T13:55:06;25.70;52.00
16287;DHT22;8251;53.568;10.018;2023-08-30T13:57:33;25.70;52.70
16287;DHT22;8251;53.568;10.018;2023-08-30T14:00:00;25.80;52.50
16287;DHT22;8251;53.568;10.018;2023-08-30T14:02:31;25.70;53.10
16287;DHT22;8251;53.568;10.018;2023-08-30T14:04:59;25.60;52.90
16287;DHT22;8251;53.568;10.018;2023-08-30T14:07:27;25.60;53.30
16287;DHT22;8251;53.568;10.018;2023-08-30T14:09:53;25.60;53.70
16287;DHT22;8251;53.568;10.018;2023-08-30T14:12:20;25.60;53.30
16287;DHT22;8251;53.568;10.018;2023-08-30T14:14:47;25.40;53.60
16287;DHT22;8251;53.568;10.018;2023-08-30T14:17:14;25.40;53.10
16287;DHT22;8251;53.568;10.018;2023-08-30T14:19:41;25.40;52.60
16287;DHT22;8251;53.568;10.018;2023-08-30T14:22:08;25.30;52.60
16287;DHT22;8251;53.568;10.018;2023-08-30T14:24:36;25.20;52.70
16287;DHT22;8251;53.568;10.018;2023-08-30T14:27:04;25.20;53.00
16287;DHT22;8251;53.568;10.018;2023-08-30T14:29:30;25.30;53.00
16287;DHT22;8251;53.568;10.018;2023-08-30T14:31:57;25.20;52.50
16287;DHT22;8251;53.568;10.018;2023-08-30T14:34:25;25.20;53.70
16287;DHT22;8251;53.568;10.018;2023-08-30T14:36:56;25.20;54.90
16287;DHT22;8251;53.568;10.018;2023-08-30T14:39:32;25.20;55.00
16287;DHT22;8251;53.568;10.018;2023-08-30T14:42:04;25.10;54.80
16287;DHT22;8251;53.568;10.018;2023-08-30T14:44:30;25.00;54.60
16287;DHT22;8251;53.568;10.018;2023-08-30T14:46:58;24.90;54.80
16287;DHT22;8251;53.568;10.018;2023-08-30T14:49:24;24.90;55.40
16287;DHT22;8251;53.568;10.018;2023-08-30T14:51:51;24.80;55.10
16287;DHT22;8251;53.568;10.018;2023-08-30T14:54:18;24.80;55.20
16287;DHT22;8251;53.568;10.018;2023-08-30T14:56:45;24.80;55.50
16287;DHT22;8251;53.568;10.018;2023-08-30T14:59:13;24.70;55.90
16287;DHT22;8251;53.568;10.018;2023-08-30T15:01:40;24.70;56.50
16287;DHT22;8251;53.568;10.018;2023-08-30T15:04:07;24.70;56.90
16287;DHT22;8251;53.568;10.018;2023-08-30T15:06:34;24.60;56.50
16287;DHT22;8251;53.568;10.018;2023-08-30T15:09:03;24.50;56.70
16287;DHT22;8251;53.568;10.018;2023-08-30T15:11:29;24.50;56.90
16287;DHT22;8251;53.568;10.018;2023-08-30T15:13:56;24.50;56.90
16287;DHT22;8251;53.568;10.018;2023-08-30T15:16:25;24.50;56.90
16287;DHT22;8251;53.568;10.018;2023-08-30T15:18:51;24.50;57.50
16287;DHT22;8251;53.568;10.018;2023-08-30T15:21:18;24.40;57.30
16287;DHT22;8251;53.568;10.018;2023-08-30T15:23:45;24.40;56.50
16287;DHT22;8251;53.568;10.018;2023-08-30T15:26:12;24.30;55.70
16287;DHT22;8251;53.568;10.018;2023-08-30T15:28:42;24.20;55.80
16287;DHT22;8251;53.568;10.018;2023-08-30T15:31:11;24.20;56.00
16287;DHT22;8251;53.568;10.018;2023-08-30T15:33:40;24.20;56.80
16287;DHT22;8251;53.568;10.018;2023-08-30T15:36:07;24.10;56.80